Terminal Aerodrome Forecast
Issued by NWS Cleveland, OH

Home | Current Version | Previous Version | Text Only | Print | Product List | Glossary On
Versions: 1 2 3 4 5 6 7 8 9 10 11 12 13 14
000
FTUS41 KCLE 251736
TAFERI
TAF
KERI 251736Z 2518/2618 27011KT P6SM SCT020
      TEMPO 2518/2519 BKN020
     FM252100 24010KT P6SM VCTS BKN040CB
      TEMPO 2521/2601 3SM TSRA BR OVC025CB
     FM260300 21008KT 5SM BR OVC020
     FM261400 30008KT P6SM SCT025=

USA.gov is the U.S. government's official web portal to all federal, state and local government web resources and services.